Time;durP1;ratioP1;P1;durP2;ratioP2;P2;SDS_P1;SDS_P2;PMS_P1;PMS_P2;Temp;Humidity;BMP_temperature;BMP_pressure;BME280_temperature;BME280_humidity;BME280_pressure;Samples;Min_cycle;Max_cycle;Signal;HPM_P1;HPM_P2
2022/07/19 00:00:42;;;;;;;6.35;1.40;;;16.30;81.30;;;;;;5111248;27;20031;-68
2022/07/19 00:03:08;;;;;;;2.85;1.75;;;16.30;81.20;;;;;;5112633;27;20026;-71
2022/07/19 00:05:35;;;;;;;6.18;1.90;;;16.30;81.10;;;;;;5110511;28;20032;-69
2022/07/19 00:08:01;;;;;;;5.50;1.25;;;16.20;80.80;;;;;;5110149;27;20024;-71
2022/07/19 00:10:28;;;;;;;2.67;1.05;;;16.20;80.70;;;;;;5110563;27;20047;-70
2022/07/19 00:12:54;;;;;;;3.92;1.58;;;16.20;80.70;;;;;;5111775;27;20024;-68
2022/07/19 00:15:21;;;;;;;3.65;1.85;;;16.20;80.70;;;;;;5113430;27;20015;-68
2022/07/19 00:17:49;;;;;;;5.38;1.23;;;16.20;80.80;;;;;;5112159;27;20092;-70
2022/07/19 00:20:19;;;;;;;2.30;1.27;;;16.20;80.80;;;;;;5112968;27;20020;-72
2022/07/19 00:22:46;;;;;;;6.25;1.38;;;16.20;80.90;;;;;;5112290;27;20714;-72
2022/07/19 00:25:13;;;;;;;4.85;2.50;;;16.20;80.90;;;;;;5111386;27;20032;-69
2022/07/19 00:27:41;;;;;;;4.43;0.93;;;16.10;81.30;;;;;;5111199;27;20016;-71
2022/07/19 00:30:08;;;;;;;9.30;1.20;;;16.10;81.90;;;;;;5111211;27;20474;-70
2022/07/19 00:32:35;;;;;;;6.75;1.00;;;16.20;82.10;;;;;;5110627;27;20032;-72
2022/07/19 00:35:02;;;;;;;7.68;0.90;;;16.20;82.00;;;;;;5108504;27;20019;-72
2022/07/19 00:37:29;;;;;;;3.55;1.30;;;16.20;81.90;;;;;;5110287;28;20088;-72
2022/07/19 00:39:55;;;;;;;5.22;1.05;;;16.20;81.90;;;;;;5110094;27;20420;-69
2022/07/19 00:42:22;;;;;;;6.97;0.63;;;16.20;81.90;;;;;;5109228;28;20016;-70
2022/07/19 00:44:48;;;;;;;8.38;0.77;;;16.20;82.30;;;;;;5112099;27;20411;-75
2022/07/19 00:47:15;;;;;;;2.30;0.30;;;16.20;82.70;;;;;;5092453;28;20027;-69
2022/07/19 00:49:41;;;;;;;5.57;0.90;;;16.20;82.50;;;;;;5108585;27;20390;-70
2022/07/19 00:52:09;;;;;;;0.57;0.30;;;16.20;82.30;;;;;;5109995;28;20024;-74
2022/07/19 00:54:37;;;;;;;1.75;0.38;;;16.20;82.00;;;;;;5112287;27;20489;-74
2022/07/19 00:57:04;;;;;;;2.78;0.45;;;16.20;81.90;;;;;;5111252;27;20019;-69
2022/07/19 00:59:32;;;;;;;1.00;0.70;;;16.10;81.90;;;;;;5110479;28;20034;-69
2022/07/19 01:01:59;;;;;;;1.52;0.43;;;16.10;81.90;;;;;;5109845;27;20043;-72
2022/07/19 01:04:26;;;;;;;5.40;0.50;;;16.10;81.90;;;;;;5108801;28;20027;-71
2022/07/19 01:06:53;;;;;;;0.55;0.40;;;16.10;81.90;;;;;;5108178;27;20067;-73
2022/07/19 01:09:20;;;;;;;4.50;2.65;;;16.10;81.80;;;;;;5109061;27;20024;-71
2022/07/19 01:11:46;;;;;;;3.15;1.20;;;16.10;81.80;;;;;;5109405;27;20599;-69
2022/07/19 01:14:13;;;;;;;10.48;1.00;;;16.10;81.80;;;;;;5106041;28;20016;-71
2022/07/19 01:16:48;;;;;;;3.65;0.60;;;16.10;82.00;;;;;;5111153;27;20439;-72
2022/07/19 01:19:15;;;;;;;;;;;16.10;82.20;;;;;;5110240;27;20018;-72
2022/07/19 01:21:42;;;;;;;2.88;0.40;;;16.10;82.20;;;;;;5110679;28;19907;-74
2022/07/19 01:24:09;;;;;;;1.85;0.43;;;16.10;82.20;;;;;;5111208;27;20462;-71
2022/07/19 01:26:35;;;;;;;4.82;0.77;;;16.10;82.10;;;;;;5111077;27;20031;-71
2022/07/19 01:29:03;;;;;;;2.38;0.43;;;16.10;82.10;;;;;;5110099;28;20032;-70
2022/07/19 01:31:29;;;;;;;4.93;0.40;;;16.10;82.00;;;;;;5110284;27;20023;-71
2022/07/19 01:33:56;;;;;;;3.20;0.90;;;16.10;81.90;;;;;;5110072;28;20031;-70
2022/07/19 01:36:22;;;;;;;4.05;0.50;;;16.10;81.90;;;;;;5109624;27;20055;-69
2022/07/19 01:38:49;;;;;;;1.23;0.40;;;16.10;81.90;;;;;;5108721;28;20023;-72
2022/07/19 01:41:15;;;;;;;1.73;0.90;;;16.10;81.90;;;;;;5112342;27;20091;-71
2022/07/19 01:43:44;;;;;;;7.05;0.90;;;16.10;81.80;;;;;;5113878;27;20020;-70
2022/07/19 01:46:10;;;;;;;1.90;0.90;;;16.10;81.80;;;;;;5112266;27;20031;-73
2022/07/19 01:48:37;;;;;;;5.18;2.13;;;16.10;81.80;;;;;;5109426;27;20030;-70
2022/07/19 01:51:03;;;;;;;3.58;1.60;;;16.00;81.70;;;;;;5112279;27;20339;-70
2022/07/19 01:53:30;;;;;;;3.40;1.48;;;16.00;81.80;;;;;;5108559;27;20527;-73
2022/07/19 01:55:56;;;;;;;3.03;1.10;;;16.00;81.70;;;;;;5109852;28;20483;-73
2022/07/19 01:58:23;;;;;;;3.70;1.58;;;16.00;81.60;;;;;;5107579;28;20746;-73
2022/07/19 02:00:50;;;;;;;2.78;1.73;;;16.00;81.60;;;;;;5110777;28;20543;-73
2022/07/19 02:03:17;;;;;;;3.55;1.30;;;16.00;81.50;;;;;;5107543;28;20022;-72
2022/07/19 02:05:44;;;;;;;8.55;1.25;;;15.90;81.40;;;;;;5107462;28;20679;-72
2022/07/19 02:08:11;;;;;;;4.93;1.00;;;15.90;81.60;;;;;;5109147;28;20087;-73
2022/07/19 02:10:37;;;;;;;1.85;1.10;;;15.90;82.00;;;;;;5108440;28;20012;-72
2022/07/19 02:13:04;;;;;;;5.13;1.08;;;15.90;82.20;;;;;;5111551;28;20031;-69
2022/07/19 02:15:30;;;;;;;6.43;1.27;;;15.90;82.10;;;;;;5107989;28;20490;-71
2022/07/19 02:17:57;;;;;;;5.85;1.67;;;15.90;82.10;;;;;;5109728;28;20452;-72
2022/07/19 02:20:24;;;;;;;1.75;1.10;;;15.90;82.00;;;;;;5107427;28;20418;-72
2022/07/19 02:22:51;;;;;;;3.13;1.00;;;15.90;81.90;;;;;;5109780;28;20026;-69
2022/07/19 02:25:17;;;;;;;2.40;1.25;;;15.80;81.80;;;;;;5108726;28;20600;-72
2022/07/19 02:27:44;;;;;;;11.90;2.00;;;15.90;81.90;;;;;;5108939;27;20023;-71
2022/07/19 02:30:12;;;;;;;11.27;1.45;;;15.90;82.30;;;;;;5112723;27;20030;-72
2022/07/19 02:32:40;;;;;;;3.90;1.38;;;15.90;82.30;;;;;;5114026;27;20020;-70
2022/07/19 02:35:08;;;;;;;2.92;1.25;;;15.80;82.00;;;;;;5114756;27;20532;-71
2022/07/19 02:37:35;;;;;;;11.25;1.45;;;15.80;81.80;;;;;;5113846;27;20011;-70
2022/07/19 02:40:02;;;;;;;7.45;1.35;;;15.80;81.70;;;;;;5117818;27;20402;-71
2022/07/19 02:42:28;;;;;;;7.82;1.60;;;15.70;81.40;;;;;;5113371;27;20385;-69
2022/07/19 02:44:55;;;;;;;3.30;1.17;;;15.70;81.40;;;;;;5112871;27;20073;-70
2022/07/19 02:47:21;;;;;;;4.90;1.42;;;15.70;81.80;;;;;;5113750;27;20020;-70
2022/07/19 02:49:48;;;;;;;5.28;1.98;;;15.70;82.00;;;;;;5112673;27;20047;-72
2022/07/19 02:52:14;;;;;;;2.50;0.90;;;15.70;82.00;;;;;;5115550;27;20024;-72
2022/07/19 02:54:41;;;;;;;5.60;1.15;;;15.70;82.10;;;;;;5112486;27;20020;-71
2022/07/19 02:57:07;;;;;;;2.80;1.33;;;15.70;82.10;;;;;;5113496;27;20104;-73
2022/07/19 02:59:34;;;;;;;13.32;2.15;;;15.70;82.10;;;;;;5113099;27;20015;-69
2022/07/19 03:02:00;;;;;;;30.80;15.65;;;15.70;82.20;;;;;;5111854;27;20019;-72
2022/07/19 03:04:27;;;;;;;37.67;19.58;;;15.70;82.80;;;;;;5113728;27;20027;-70
2022/07/19 03:06:53;;;;;;;15.20;9.27;;;15.70;83.10;;;;;;5114578;27;20035;-72
2022/07/19 03:09:20;;;;;;;7.03;3.90;;;15.70;83.00;;;;;;5113549;27;20066;-69
2022/07/19 03:11:47;;;;;;;7.97;3.25;;;15.60;82.70;;;;;;5111161;27;20032;-69
2022/07/19 03:14:13;;;;;;;4.85;1.85;;;15.60;82.40;;;;;;5113050;27;20657;-69
2022/07/19 03:16:40;;;;;;;7.22;1.63;;;15.70;82.30;;;;;;5111476;27;20035;-74
2022/07/19 03:19:08;;;;;;;5.25;1.50;;;15.60;82.10;;;;;;5111709;27;20055;-72
2022/07/19 03:21:35;;;;;;;5.90;3.13;;;15.60;82.20;;;;;;5111089;27;20494;-72
2022/07/19 03:24:01;;;;;;;5.47;1.48;;;15.50;82.20;;;;;;5117220;27;20026;-72
2022/07/19 03:26:28;;;;;;;4.22;1.55;;;15.60;82.30;;;;;;5115414;27;20031;-72
2022/07/19 03:28:54;;;;;;;2.25;1.33;;;15.50;82.30;;;;;;5112444;27;20105;-71
2022/07/19 03:31:20;;;;;;;4.93;2.05;;;15.50;82.40;;;;;;5110616;27;20074;-70
2022/07/19 03:33:47;;;;;;;3.67;1.08;;;15.50;82.50;;;;;;5110685;28;20020;-69
2022/07/19 03:36:13;;;;;;;3.95;1.40;;;15.50;82.60;;;;;;5114773;27;20027;-71
2022/07/19 03:38:40;;;;;;;9.45;2.47;;;15.50;82.70;;;;;;5112475;27;20027;-69
2022/07/19 03:41:06;;;;;;;14.27;3.17;;;15.50;82.80;;;;;;5112403;27;20012;-72
2022/07/19 03:43:33;;;;;;;7.10;2.50;;;15.50;82.90;;;;;;5112043;28;20026;-72
2022/07/19 03:45:59;;;;;;;8.00;1.65;;;15.50;82.90;;;;;;5108990;27;20028;-69
2022/07/19 03:48:26;;;;;;;3.95;1.90;;;15.40;82.90;;;;;;5116614;27;20105;-73
2022/07/19 03:50:52;;;;;;;3.83;1.30;;;15.40;83.10;;;;;;5112946;27;20366;-72
2022/07/19 03:53:19;;;;;;;11.25;2.13;;;15.40;83.10;;;;;;5112278;27;20039;-73
2022/07/19 03:55:45;;;;;;;17.48;9.38;;;15.40;83.10;;;;;;5111092;27;20156;-73
2022/07/19 03:58:12;;;;;;;26.00;14.82;;;15.40;83.10;;;;;;5111565;27;20023;-73
2022/07/19 04:00:39;;;;;;;31.85;12.20;;;15.40;83.10;;;;;;5110633;27;20375;-72
2022/07/19 04:03:05;;;;;;;8.05;3.92;;;15.40;83.00;;;;;;5108764;27;20382;-74
2022/07/19 04:05:32;;;;;;;4.95;2.60;;;15.40;83.00;;;;;;5111270;27;20015;-74
2022/07/19 04:07:58;;;;;;;9.63;1.70;;;15.40;83.60;;;;;;5110174;28;20012;-74
2022/07/19 04:10:25;;;;;;;3.80;1.77;;;15.40;84.20;;;;;;5113635;27;20100;-75
2022/07/19 04:12:51;;;;;;;3.58;1.23;;;15.50;84.40;;;;;;5110003;27;20020;-72
2022/07/19 04:15:18;;;;;;;3.30;1.25;;;15.50;84.40;;;;;;5111399;27;20465;-74
2022/07/19 04:17:44;;;;;;;5.72;0.68;;;15.50;84.30;;;;;;5112728;27;20012;-72
2022/07/19 04:20:11;;;;;;;3.75;0.80;;;15.50;84.00;;;;;;5111597;27;20020;-74
2022/07/19 04:22:38;;;;;;;6.38;1.40;;;15.50;83.90;;;;;;5112716;27;20386;-72
2022/07/19 04:25:05;;;;;;;9.95;7.25;;;15.50;83.50;;;;;;5110920;27;20020;-71
2022/07/19 04:27:32;;;;;;;22.30;13.95;;;15.40;83.90;;;;;;5108861;28;20016;-73
2022/07/19 04:29:59;;;;;;;23.98;7.53;;;15.40;84.10;;;;;;5113313;27;20027;-74
2022/07/19 04:32:25;;;;;;;9.45;4.35;;;15.40;84.20;;;;;;5110728;27;20031;-72
2022/07/19 04:34:52;;;;;;;7.88;2.38;;;15.40;84.50;;;;;;5108236;27;20077;-74
2022/07/19 04:37:18;;;;;;;5.57;1.95;;;15.40;84.60;;;;;;5109802;27;20012;-73
2022/07/19 04:39:45;;;;;;;5.93;1.45;;;15.40;84.70;;;;;;5110807;27;20030;-76
2022/07/19 04:42:12;;;;;;;2.60;2.08;;;15.40;85.00;;;;;;5109721;27;20018;-76
2022/07/19 04:44:38;;;;;;;3.33;1.73;;;15.40;84.40;;;;;;5108529;27;20049;-78
2022/07/19 04:47:05;;;;;;;8.32;2.53;;;15.40;84.30;;;;;;5107731;27;20027;-75
2022/07/19 04:49:32;;;;;;;6.63;1.65;;;15.30;84.30;;;;;;5107488;27;20016;-75
2022/07/19 04:51:58;;;;;;;6.25;1.58;;;15.30;84.30;;;;;;5109960;27;20030;-74
2022/07/19 04:54:25;;;;;;;5.15;1.40;;;15.30;84.30;;;;;;5109344;27;20012;-72
2022/07/19 04:56:51;;;;;;;3.22;1.08;;;15.40;84.40;;;;;;5110475;27;20076;-72
2022/07/19 04:59:19;;;;;;;8.10;1.67;;;15.30;84.30;;;;;;5108366;27;20024;-72
2022/07/19 05:01:46;;;;;;;7.13;1.92;;;15.30;84.60;;;;;;5113709;27;20427;-73
2022/07/19 05:04:12;;;;;;;2.65;1.08;;;15.30;84.60;;;;;;5109813;27;20020;-73
2022/07/19 05:06:39;;;;;;;7.28;2.20;;;15.30;84.80;;;;;;5110885;27;20063;-74
2022/07/19 05:09:05;;;;;;;8.18;1.95;;;15.30;84.80;;;;;;5108747;27;20023;-73
2022/07/19 05:11:32;;;;;;;2.80;1.67;;;15.20;84.80;;;;;;5110392;27;20015;-73
2022/07/19 05:13:58;;;;;;;3.92;1.73;;;15.20;84.80;;;;;;5112710;27;20050;-73
2022/07/19 05:16:25;;;;;;;6.80;1.67;;;15.30;84.90;;;;;;5108400;27;21107;-74
2022/07/19 05:18:51;;;;;;;13.20;1.95;;;15.30;85.10;;;;;;5110844;27;20020;-72
2022/07/19 05:21:18;;;;;;;4.65;1.85;;;15.20;85.10;;;;;;5110109;27;20023;-73
2022/07/19 05:23:44;;;;;;;5.78;2.28;;;15.20;85.10;;;;;;5108439;27;20032;-74
2022/07/19 05:26:11;;;;;;;3.30;2.78;;;15.20;85.10;;;;;;5109302;27;20040;-74
2022/07/19 05:28:37;;;;;;;5.80;2.78;;;15.30;85.20;;;;;;5111478;27;20027;-73
2022/07/19 05:31:04;;;;;;;6.80;2.55;;;15.20;85.30;;;;;;5111337;27;20016;-73
2022/07/19 05:33:31;;;;;;;7.57;2.17;;;15.30;85.40;;;;;;5109178;27;20015;-72
2022/07/19 05:35:58;;;;;;;2.85;2.03;;;15.20;85.40;;;;;;5108129;28;20020;-72
2022/07/19 05:38:24;;;;;;;4.95;2.33;;;15.20;85.20;;;;;;5107916;27;20020;-72
2022/07/19 05:40:51;;;;;;;5.35;1.90;;;15.20;85.20;;;;;;5110054;27;20047;-71
2022/07/19 05:43:17;;;;;;;8.57;2.75;;;15.20;85.70;;;;;;5106662;27;20034;-72
2022/07/19 05:45:44;;;;;;;9.05;3.47;;;15.20;85.10;;;;;;5107001;28;20577;-73
2022/07/19 05:48:11;;;;;;;4.25;2.10;;;15.20;85.10;;;;;;5107868;27;20085;-73
2022/07/19 05:50:37;;;;;;;5.75;2.42;;;15.20;85.10;;;;;;5109260;27;20023;-73
2022/07/19 05:53:03;;;;;;;9.15;2.20;;;15.20;84.90;;;;;;5108418;28;20377;-73
2022/07/19 05:55:30;;;;;;;9.80;2.58;;;15.20;84.80;;;;;;5110027;27;20379;-73
2022/07/19 05:57:56;;;;;;;12.80;3.22;;;15.20;84.60;;;;;;5107758;28;20533;-73
2022/07/19 06:00:23;;;;;;;7.05;3.75;;;15.20;84.50;;;;;;5107913;28;20055;-73
2022/07/19 06:02:49;;;;;;;7.88;2.50;;;15.20;84.40;;;;;;5108420;27;20375;-72
2022/07/19 06:05:16;;;;;;;8.88;3.03;;;15.20;84.30;;;;;;5108350;28;20035;-73
2022/07/19 06:07:42;;;;;;;7.65;2.33;;;15.20;84.30;;;;;;5108153;28;20164;-72
2022/07/19 06:10:09;;;;;;;5.05;2.40;;;15.20;84.10;;;;;;5108823;28;20362;-72
2022/07/19 06:12:36;;;;;;;5.10;2.67;;;15.20;84.00;;;;;;5088599;28;20465;-72
2022/07/19 06:15:03;;;;;;;7.68;1.70;;;15.20;84.00;;;;;;5110508;28;20028;-72
2022/07/19 06:17:30;;;;;;;4.55;2.20;;;15.20;83.80;;;;;;5105336;28;20565;-72
2022/07/19 06:19:56;;;;;;;3.88;2.33;;;15.20;83.70;;;;;;5108311;28;20034;-73
2022/07/19 06:22:22;;;;;;;5.85;1.85;;;15.20;83.40;;;;;;5107964;28;20028;-70
2022/07/19 06:24:49;;;;;;;5.53;1.85;;;15.20;83.40;;;;;;5109825;28;20490;-71
2022/07/19 06:27:15;;;;;;;10.95;2.22;;;15.20;83.20;;;;;;5105688;28;20501;-72
2022/07/19 06:29:42;;;;;;;10.32;1.85;;;15.20;82.90;;;;;;5108993;28;20076;-71
2022/07/19 06:32:08;;;;;;;1.95;1.42;;;15.20;82.90;;;;;;5111309;28;20011;-69
2022/07/19 06:34:35;;;;;;;4.88;1.92;;;15.30;83.30;;;;;;5107392;28;20020;-71
2022/07/19 06:37:01;;;;;;;10.65;3.28;;;15.20;82.30;;;;;;5109829;28;20031;-70
2022/07/19 06:39:28;;;;;;;9.90;2.50;;;15.30;82.50;;;;;;5107920;28;20020;-69
2022/07/19 06:41:54;;;;;;;9.23;2.38;;;15.30;82.70;;;;;;5113390;28;20024;-70
2022/07/19 06:44:21;;;;;;;7.15;1.83;;;15.20;82.80;;;;;;5106733;28;20043;-71
2022/07/19 06:46:47;;;;;;;11.60;2.28;;;15.30;82.70;;;;;;5109055;28;20111;-70
2022/07/19 06:49:14;;;;;;;14.75;2.97;;;15.30;82.50;;;;;;5108958;28;20027;-70
2022/07/19 06:51:41;;;;;;;7.47;3.80;;;15.20;82.60;;;;;;5111231;28;20022;-69
2022/07/19 06:54:07;;;;;;;11.48;4.00;;;15.20;83.70;;;;;;5107632;28;20490;-69
2022/07/19 06:56:34;;;;;;;8.85;2.83;;;15.30;83.30;;;;;;5106859;28;20409;-70
2022/07/19 06:59:00;;;;;;;4.15;2.15;;;15.30;83.20;;;;;;5109727;28;20019;-70
2022/07/19 07:01:27;;;;;;;3.35;2.33;;;15.30;82.80;;;;;;5108013;28;20114;-69
2022/07/19 07:03:53;;;;;;;4.65;2.03;;;15.30;82.60;;;;;;5110293;28;20486;-69
2022/07/19 07:06:20;;;;;;;3.50;2.15;;;15.30;82.40;;;;;;5110862;28;20042;-70
2022/07/19 07:08:46;;;;;;;3.35;1.55;;;15.30;82.40;;;;;;5108544;28;20016;-70
2022/07/19 07:11:13;;;;;;;2.97;1.67;;;15.30;82.50;;;;;;5110174;28;20016;-69
2022/07/19 07:13:39;;;;;;;8.90;2.00;;;15.30;82.60;;;;;;5110398;27;20020;-70
2022/07/19 07:16:06;;;;;;;8.80;2.33;;;15.30;82.60;;;;;;5112007;27;20046;-71
2022/07/19 07:18:32;;;;;;;4.47;1.92;;;15.40;82.60;;;;;;5111710;27;20994;-69
2022/07/19 07:20:59;;;;;;;4.78;1.48;;;15.40;82.60;;;;;;5110590;28;20036;-70
2022/07/19 07:23:26;;;;;;;3.97;1.83;;;15.40;82.60;;;;;;5109731;27;20016;-70
2022/07/19 07:25:53;;;;;;;9.57;2.35;;;15.40;82.50;;;;;;5112421;27;20377;-71
2022/07/19 07:28:20;;;;;;;5.40;2.22;;;15.50;82.70;;;;;;5111268;27;20023;-70
2022/07/19 07:30:46;;;;;;;4.88;1.90;;;15.50;82.80;;;;;;5094460;27;20031;-69
2022/07/19 07:33:13;;;;;;;5.32;1.52;;;15.60;82.80;;;;;;5112476;27;20019;-70
2022/07/19 07:35:39;;;;;;;5.07;1.77;;;15.60;82.90;;;;;;5109429;27;20032;-69
2022/07/19 07:38:06;;;;;;;3.92;1.80;;;15.60;82.90;;;;;;5110895;27;20019;-69
2022/07/19 07:40:32;;;;;;;14.43;3.65;;;15.70;83.10;;;;;;5103262;27;20027;-69
2022/07/19 07:42:59;;;;;;;6.57;2.42;;;15.70;83.00;;;;;;5113812;27;20107;-70
2022/07/19 07:45:26;;;;;;;3.63;1.33;;;15.80;82.90;;;;;;5110925;27;20044;-72
2022/07/19 07:47:52;;;;;;;8.18;2.47;;;15.80;82.60;;;;;;5110607;27;20020;-71
2022/07/19 07:50:18;;;;;;;5.43;1.52;;;15.80;82.00;;;;;;5110500;27;20039;-70
2022/07/19 07:52:45;;;;;;;8.10;2.33;;;15.80;81.30;;;;;;5110694;27;20016;-70
2022/07/19 07:55:11;;;;;;;4.45;1.83;;;15.80;81.00;;;;;;5113436;27;20031;-71
2022/07/19 07:57:38;;;;;;;3.92;1.40;;;15.80;81.30;;;;;;5109467;27;20486;-70
2022/07/19 08:00:07;;;;;;;8.73;2.33;;;15.80;80.40;;;;;;5111710;27;20036;-70
2022/07/19 08:02:43;;;;;;;4.82;1.52;;;15.80;80.40;;;;;;5113846;27;20023;-70
2022/07/19 08:05:10;;;;;;;5.30;1.20;;;15.80;80.40;;;;;;5113919;27;20110;-70
2022/07/19 08:07:37;;;;;;;4.78;1.13;;;15.80;80.40;;;;;;5114552;27;20031;-69
2022/07/19 08:10:06;;;;;;;6.35;1.35;;;15.80;80.20;;;;;;5109224;28;20020;-69
2022/07/19 08:12:33;;;;;;;6.20;1.65;;;15.80;79.90;;;;;;5111450;27;20414;-69
2022/07/19 08:14:59;;;;;;;4.28;0.80;;;15.90;80.00;;;;;;5109542;27;20725;-70
2022/07/19 08:17:26;;;;;;;3.08;0.85;;;15.90;80.00;;;;;;5093051;28;20051;-69
2022/07/19 08:19:52;;;;;;;3.90;0.98;;;15.90;79.80;;;;;;5108480;27;20102;-70
2022/07/19 08:22:19;;;;;;;4.03;0.82;;;15.90;79.40;;;;;;5110036;27;20023;-70
2022/07/19 08:24:45;;;;;;;1.40;0.60;;;16.00;79.20;;;;;;5110064;27;20031;-71
2022/07/19 08:27:13;;;;;;;1.48;0.60;;;16.00;78.80;;;;;;5112605;27;20031;-70
2022/07/19 08:29:40;;;;;;;2.45;0.70;;;16.00;78.70;;;;;;5115071;27;20023;-70
2022/07/19 08:32:06;;;;;;;1.75;0.70;;;16.00;78.30;;;;;;5108552;27;20020;-70
2022/07/19 08:34:33;;;;;;;1.20;0.50;;;16.00;78.10;;;;;;5108917;28;20099;-69
2022/07/19 08:37:00;;;;;;;2.58;0.73;;;16.10;78.10;;;;;;5111586;27;20012;-71
2022/07/19 08:39:26;;;;;;;2.03;1.00;;;16.10;78.00;;;;;;5109384;28;20501;-72
2022/07/19 08:41:53;;;;;;;1.45;0.68;;;16.20;77.90;;;;;;5109023;28;20030;-70
2022/07/19 08:44:20;;;;;;;1.92;0.70;;;16.20;77.70;;;;;;5109225;28;20106;-71
2022/07/19 08:46:47;;;;;;;2.60;0.77;;;16.20;77.50;;;;;;5110634;27;20043;-70
2022/07/19 08:49:15;;;;;;;2.25;0.68;;;16.20;77.20;;;;;;5109288;27;20435;-70
2022/07/19 08:51:46;;;;;;;4.70;0.73;;;16.20;76.90;;;;;;5111645;27;20027;-70
2022/07/19 08:54:13;;;;;;;4.10;0.88;;;16.30;76.70;;;;;;5108949;27;20023;-70
2022/07/19 08:59:26;;;;;;;2.65;0.60;;;16.30;75.90;;;;;;5113009;27;20041;-70
2022/07/19 09:01:52;;;;;;;7.78;0.93;;;16.30;75.80;;;;;;5108901;27;20022;-71
2022/07/19 09:04:21;;;;;;;5.20;0.70;;;16.40;75.70;;;;;;5110916;27;21027;-70
2022/07/19 09:06:48;;;;;;;3.88;0.55;;;16.40;75.40;;;;;;5089583;28;20036;-71
2022/07/19 09:09:27;;;;;;;3.35;0.80;;;16.40;75.20;;;;;;5109320;28;20020;-71
2022/07/19 09:11:56;;;;;;;5.05;0.90;;;16.40;75.10;;;;;;5106039;27;20039;-70
2022/07/19 09:14:26;;;;;;;4.30;0.60;;;16.40;75.00;;;;;;5111919;27;20039;-70
2022/07/19 09:17:01;;;;;;;3.85;0.95;;;16.50;75.00;;;;;;5106393;27;20063;-72
2022/07/19 09:19:31;;;;;;;3.33;0.60;;;16.50;74.70;;;;;;5108674;27;20023;-71
2022/07/19 09:22:18;;;;;;;3.03;0.57;;;16.60;74.50;;;;;;5108749;27;20028;-69
2022/07/19 09:24:50;;;;;;;2.30;0.60;;;16.60;74.10;;;;;;5107927;27;20076;-69
2022/07/19 09:27:19;;;;;;;4.35;0.60;;;16.60;74.00;;;;;;5110239;27;20576;-69
2022/07/19 09:29:48;;;;;;;1.75;0.43;;;16.60;74.00;;;;;;5107787;28;20431;-70
2022/07/19 09:32:16;;;;;;;3.05;0.40;;;16.70;74.00;;;;;;5108940;27;20027;-71
2022/07/19 09:34:51;;;;;;;5.45;0.82;;;16.70;74.00;;;;;;5110548;27;20035;-70
2022/07/19 09:37:22;;;;;;;1.00;0.63;;;16.80;74.10;;;;;;5108287;28;20016;-70
2022/07/19 09:39:52;;;;;;;1.20;0.63;;;16.80;73.70;;;;;;5111523;27;20034;-70
2022/07/19 09:42:34;;;;;;;4.22;0.80;;;16.90;73.50;;;;;;5107823;27;20012;-69
2022/07/19 09:45:06;;;;;;;3.13;0.82;;;16.90;73.30;;;;;;5106314;27;20386;-69
2022/07/19 09:47:42;;;;;;;4.15;0.47;;;16.90;73.10;;;;;;5109494;28;20027;-73
2022/07/19 09:50:12;;;;;;;1.77;0.60;;;17.00;73.10;;;;;;5108338;28;20027;-74
2022/07/19 09:52:40;;;;;;;3.83;0.77;;;17.10;73.10;;;;;;5108248;27;20034;-72
2022/07/19 09:55:08;;;;;;;1.83;0.60;;;17.10;72.60;;;;;;5111563;27;20034;-72
2022/07/19 09:57:40;;;;;;;4.43;0.60;;;17.10;72.40;;;;;;5107937;28;20389;-72
2022/07/19 10:00:08;;;;;;;2.88;0.73;;;17.20;72.60;;;;;;5109787;28;20082;-74
2022/07/19 10:02:40;;;;;;;1.85;1.02;;;17.20;72.60;;;;;;5108070;28;20027;-73
2022/07/19 10:05:09;;;;;;;8.32;0.60;;;17.30;72.70;;;;;;5110760;27;20028;-71
2022/07/19 10:07:35;;;;;;;3.70;0.70;;;17.40;72.60;;;;;;5108647;28;20449;-73
2022/07/19 10:10:07;;;;;;;20.98;1.27;;;17.40;72.30;;;;;;5090119;28;20039;-72
2022/07/19 10:12:36;;;;;;;2.55;0.80;;;17.40;72.00;;;;;;5109820;28;20016;-74
2022/07/19 10:15:02;;;;;;;1.67;0.77;;;17.40;71.90;;;;;;5109569;28;20085;-71
2022/07/19 10:17:41;;;;;;;2.80;0.70;;;17.50;71.90;;;;;;5109051;28;20044;-72
2022/07/19 10:20:09;;;;;;;1.25;0.40;;;17.50;71.70;;;;;;5105169;28;20026;-72
2022/07/19 10:22:39;;;;;;;0.73;0.38;;;17.50;71.50;;;;;;5107742;28;20555;-72
2022/07/19 10:25:14;;;;;;;2.28;1.23;;;17.60;71.40;;;;;;5106880;28;20114;-74
2022/07/19 10:27:56;;;;;;;1.30;0.70;;;17.60;71.50;;;;;;5111271;28;20133;-74
2022/07/19 10:30:25;;;;;;;1.92;0.60;;;17.70;71.40;;;;;;5110926;28;20031;-73
2022/07/19 10:32:54;;;;;;;1.88;0.47;;;17.70;71.40;;;;;;5109613;28;20016;-74
2022/07/19 10:35:23;;;;;;;1.17;0.45;;;17.70;71.40;;;;;;5109347;28;20141;-71
2022/07/19 10:38:02;;;;;;;4.25;0.90;;;17.70;71.50;;;;;;5106946;28;20515;-71
2022/07/19 10:40:44;;;;;;;2.95;0.70;;;17.80;71.60;;;;;;5107040;28;20024;-73
2022/07/19 10:43:10;;;;;;;3.85;0.80;;;17.80;71.50;;;;;;5108131;28;20027;-73
2022/07/19 10:45:39;;;;;;;3.63;1.25;;;17.80;71.10;;;;;;5108377;28;20061;-72
2022/07/19 10:48:11;;;;;;;4.07;0.63;;;17.90;70.90;;;;;;5109578;27;20031;-72
2022/07/19 10:50:48;;;;;;;0.70;0.50;;;17.90;70.60;;;;;;5109256;27;20103;-74
2022/07/19 10:53:42;;;;;;;3.35;1.05;;;17.90;70.50;;;;;;5112237;27;20500;-72
2022/07/19 10:56:19;;;;;;;2.72;0.47;;;17.90;70.40;;;;;;5112260;27;20032;-73
2022/07/19 10:59:07;;;;;;;3.85;0.68;;;17.90;70.30;;;;;;5111928;27;20037;-71
2022/07/19 11:01:35;;;;;;;3.05;0.57;;;17.90;70.60;;;;;;5111942;27;20028;-71
2022/07/19 11:04:32;;;;;;;2.03;1.52;;;17.90;70.70;;;;;;5102895;27;20044;-72
2022/07/19 11:07:17;;;;;;;2.47;0.88;;;17.90;71.00;;;;;;5101350;27;20054;-73
2022/07/19 11:09:46;;;;;;;1.60;0.55;;;17.90;71.40;;;;;;5114607;27;20023;-71
2022/07/19 11:12:23;;;;;;;1.20;0.77;;;17.90;71.50;;;;;;5112503;27;20593;-71
2022/07/19 11:14:49;;;;;;;1.90;0.80;;;17.90;71.70;;;;;;5110597;28;20027;-74
2022/07/19 11:17:16;;;;;;;3.83;1.45;;;17.90;71.80;;;;;;5113104;27;20043;-72
2022/07/19 11:20:04;;;;;;;4.00;0.90;;;18.00;72.00;;;;;;5109574;27;20536;-74
2022/07/19 11:22:36;;;;;;;3.40;0.68;;;18.00;71.80;;;;;;5111709;27;20027;-71
2022/07/19 11:25:04;;;;;;;2.40;0.50;;;18.00;71.40;;;;;;5109172;27;20023;-72
2022/07/19 11:27:32;;;;;;;1.65;0.63;;;18.00;71.30;;;;;;5112486;27;20036;-72
2022/07/19 11:30:03;;;;;;;6.18;0.88;;;18.10;71.00;;;;;;5115727;27;20015;-74
2022/07/19 11:32:30;;;;;;;2.80;1.02;;;18.10;71.10;;;;;;5113291;27;20043;-72
2022/07/19 11:35:12;;;;;;;3.13;0.47;;;18.20;70.00;;;;;;5109726;28;20015;-71
2022/07/19 11:37:40;;;;;;;2.03;0.90;;;18.20;70.10;;;;;;5112053;27;20455;-72
2022/07/19 11:40:09;;;;;;;4.78;1.38;;;18.30;70.20;;;;;;5111026;27;20105;-71
2022/07/19 11:42:42;;;;;;;2.95;1.77;;;18.40;70.00;;;;;;5110798;27;20015;-72
2022/07/19 11:45:13;;;;;;;2.95;1.13;;;18.40;69.70;;;;;;5109141;28;20012;-72
2022/07/19 11:47:44;;;;;;;4.93;1.35;;;18.50;69.60;;;;;;5111213;27;20110;-70
2022/07/19 11:50:12;;;;;;;2.20;0.98;;;18.50;69.20;;;;;;5111742;27;20027;-71
2022/07/19 11:52:42;;;;;;;1.67;1.10;;;18.50;68.50;;;;;;5092243;28;20020;-72
2022/07/19 11:55:09;;;;;;;2.15;0.70;;;18.50;68.00;;;;;;5109110;28;20023;-72
2022/07/19 11:57:37;;;;;;;4.50;0.40;;;18.50;67.60;;;;;;5112426;27;20019;-72
2022/07/19 12:00:05;;;;;;;0.70;0.47;;;18.50;67.40;;;;;;5109586;27;20027;-74
2022/07/19 12:02:51;;;;;;;1.77;1.10;;;18.50;67.20;;;;;;5113733;27;20023;-71
2022/07/19 12:05:18;;;;;;;4.00;0.88;;;18.50;67.00;;;;;;5111616;27;20132;-70
2022/07/19 12:07:50;;;;;;;2.30;0.60;;;18.60;66.70;;;;;;5109337;27;20058;-72
2022/07/19 12:10:36;;;;;;;1.13;0.35;;;18.60;66.70;;;;;;5112543;27;20023;-69
2022/07/19 12:13:04;;;;;;;5.10;1.10;;;18.70;66.60;;;;;;5110526;27;20032;-70
2022/07/19 12:15:53;;;;;;;4.00;0.73;;;18.70;66.50;;;;;;5110728;27;20670;-70
2022/07/19 12:18:41;;;;;;;2.60;0.95;;;18.70;66.40;;;;;;5109287;28;20115;-70
2022/07/19 12:21:27;;;;;;;2.70;0.50;;;18.80;66.40;;;;;;5108146;28;20113;-72
2022/07/19 12:24:25;;;;;;;4.78;1.05;;;18.80;66.40;;;;;;5109578;27;20026;-69
2022/07/19 12:26:55;;;;;;;1.92;0.82;;;18.80;66.40;;;;;;5111141;27;20039;-69
2022/07/19 12:29:30;;;;;;;1.55;0.82;;;18.80;66.30;;;;;;5109471;27;20024;-69
2022/07/19 12:32:18;;;;;;;2.90;0.80;;;18.80;66.50;;;;;;5091944;28;20023;-71
2022/07/19 12:34:57;;;;;;;1.63;0.63;;;18.80;66.20;;;;;;5097705;27;20070;-73
2022/07/19 12:37:41;;;;;;;3.92;0.70;;;18.90;65.90;;;;;;5110563;27;20107;-70
2022/07/19 12:40:12;;;;;;;2.10;0.98;;;18.90;65.80;;;;;;5111154;27;20024;-70
2022/07/19 12:42:43;;;;;;;1.83;0.82;;;19.00;65.70;;;;;;5109580;27;20047;-69
2022/07/19 12:45:14;;;;;;;5.63;0.80;;;19.00;65.20;;;;;;5108278;27;20042;-71
2022/07/19 12:47:41;;;;;;;0.82;0.40;;;19.00;64.50;;;;;;5089473;28;20363;-70
2022/07/19 12:50:09;;;;;;;4.25;0.55;;;19.00;64.20;;;;;;5110421;27;20465;-72
2022/07/19 12:52:35;;;;;;;2.08;0.77;;;19.00;64.00;;;;;;5111319;27;20047;-70
2022/07/19 12:55:01;;;;;;;1.65;0.50;;;19.00;63.70;;;;;;5111388;27;20055;-72